sensor_id;sensor_type;location;lat;lon;timestamp;P1;durP1;ratioP1;P2;durP2;ratioP2
84270;SDS011;74614;50.032;19.566;2023-12-22T00:01:17;7;;;3;;
84270;SDS011;74614;50.032;19.566;2023-12-22T00:03:30;6;;;3;;
84270;SDS011;74614;50.032;19.566;2023-12-22T00:05:23;7;;;2;;
84270;SDS011;74614;50.032;19.566;2023-12-22T00:07:24;6;;;3;;
84270;SDS011;74614;50.032;19.566;2023-12-22T00:09:21;6;;;3;;
84270;SDS011;74614;50.032;19.566;2023-12-22T00:11:22;7;;;3;;
84270;SDS011;74614;50.032;19.566;2023-12-22T00:13:23;6;;;4;;
84270;SDS011;74614;50.032;19.566;2023-12-22T00:15:28;7;;;3;;
84270;SDS011;74614;50.032;19.566;2023-12-22T00:17:24;4;;;2;;
84270;SDS011;74614;50.032;19.566;2023-12-22T00:19:21;6;;;3;;
84270;SDS011;74614;50.032;19.566;2023-12-22T00:21:25;6;;;3;;
84270;SDS011;74614;50.032;19.566;2023-12-22T00:23:25;7;;;3;;
84270;SDS011;74614;50.032;19.566;2023-12-22T00:25:23;6;;;3;;
84270;SDS011;74614;50.032;19.566;2023-12-22T00:27:22;6;;;3;;
84270;SDS011;74614;50.032;19.566;2023-12-22T00:29:24;6;;;3;;
84270;SDS011;74614;50.032;19.566;2023-12-22T00:31:21;6;;;2;;
84270;SDS011;74614;50.032;19.566;2023-12-22T00:33:23;7;;;3;;
84270;SDS011;74614;50.032;19.566;2023-12-22T00:35:21;7;;;3;;
84270;SDS011;74614;50.032;19.566;2023-12-22T00:37:31;6;;;3;;
84270;SDS011;74614;50.032;19.566;2023-12-22T00:39:25;7;;;3;;
84270;SDS011;74614;50.032;19.566;2023-12-22T00:41:23;6;;;3;;
84270;SDS011;74614;50.032;19.566;2023-12-22T00:43:21;7;;;3;;
84270;SDS011;74614;50.032;19.566;2023-12-22T00:45:34;9;;;4;;
84270;SDS011;74614;50.032;19.566;2023-12-22T00:48:21;6;;;3;;
84270;SDS011;74614;50.032;19.566;2023-12-22T00:50:20;6;;;3;;
84270;SDS011;74614;50.032;19.566;2023-12-22T00:52:23;7;;;3;;
84270;SDS011;74614;50.032;19.566;2023-12-22T00:54:26;6;;;3;;
84270;SDS011;74614;50.032;19.566;2023-12-22T00:56:21;5;;;2;;
84270;SDS011;74614;50.032;19.566;2023-12-22T00:58:20;5;;;3;;
84270;SDS011;74614;50.032;19.566;2023-12-22T01:00:21;7;;;3;;
84270;SDS011;74614;50.032;19.566;2023-12-22T01:02:23;5;;;3;;
84270;SDS011;74614;50.032;19.566;2023-12-22T01:04:23;5;;;2;;
84270;SDS011;74614;50.032;19.566;2023-12-22T01:06:20;6;;;3;;
84270;SDS011;74614;50.032;19.566;2023-12-22T01:08:22;4;;;2;;
84270;SDS011;74614;50.032;19.566;2023-12-22T01:10:23;4;;;3;;
84270;SDS011;74614;50.032;19.566;2023-12-22T01:12:22;5;;;2;;
84270;SDS011;74614;50.032;19.566;2023-12-22T01:14:22;4;;;2;;
84270;SDS011;74614;50.032;19.566;2023-12-22T01:16:25;3;;;2;;
84270;SDS011;74614;50.032;19.566;2023-12-22T01:18:22;4;;;2;;
84270;SDS011;74614;50.032;19.566;2023-12-22T01:20:23;5;;;2;;
84270;SDS011;74614;50.032;19.566;2023-12-22T01:22:21;5;;;3;;
84270;SDS011;74614;50.032;19.566;2023-12-22T01:24:21;5;;;3;;
84270;SDS011;74614;50.032;19.566;2023-12-22T01:26:20;5;;;2;;
84270;SDS011;74614;50.032;19.566;2023-12-22T01:28:21;4;;;3;;
84270;SDS011;74614;50.032;19.566;2023-12-22T01:30:23;6;;;3;;
84270;SDS011;74614;50.032;19.566;2023-12-22T01:32:41;5;;;3;;
84270;SDS011;74614;50.032;19.566;2023-12-22T01:35:23;7;;;3;;
84270;SDS011;74614;50.032;19.566;2023-12-22T01:37:26;6;;;3;;
84270;SDS011;74614;50.032;19.566;2023-12-22T01:39:21;5;;;2;;
84270;SDS011;74614;50.032;19.566;2023-12-22T01:41:24;5;;;2;;
84270;SDS011;74614;50.032;19.566;2023-12-22T01:43:27;7;;;3;;
84270;SDS011;74614;50.032;19.566;2023-12-22T01:45:26;4;;;2;;
84270;SDS011;74614;50.032;19.566;2023-12-22T01:47:24;7;;;3;;
84270;SDS011;74614;50.032;19.566;2023-12-22T01:49:23;5;;;2;;
84270;SDS011;74614;50.032;19.566;2023-12-22T01:51:21;5;;;2;;
84270;SDS011;74614;50.032;19.566;2023-12-22T01:53:22;4;;;2;;
84270;SDS011;74614;50.032;19.566;2023-12-22T01:55:20;6;;;3;;
84270;SDS011;74614;50.032;19.566;2023-12-22T01:57:23;5;;;2;;
84270;SDS011;74614;50.032;19.566;2023-12-22T01:59:21;5;;;2;;
84270;SDS011;74614;50.032;19.566;2023-12-22T02:01:22;6;;;3;;
84270;SDS011;74614;50.032;19.566;2023-12-22T02:03:25;5;;;2;;
84270;SDS011;74614;50.032;19.566;2023-12-22T02:05:22;6;;;3;;
84270;SDS011;74614;50.032;19.566;2023-12-22T02:07:20;4;;;2;;
84270;SDS011;74614;50.032;19.566;2023-12-22T02:09:27;5;;;2;;
84270;SDS011;74614;50.032;19.566;2023-12-22T02:11:22;6;;;2;;
84270;SDS011;74614;50.032;19.566;2023-12-22T02:13:23;6;;;3;;
84270;SDS011;74614;50.032;19.566;2023-12-22T02:15:20;6;;;3;;
84270;SDS011;74614;50.032;19.566;2023-12-22T02:17:24;4;;;2;;
84270;SDS011;74614;50.032;19.566;2023-12-22T02:20:19;4;;;2;;
84270;SDS011;74614;50.032;19.566;2023-12-22T02:22:20;5;;;2;;
84270;SDS011;74614;50.032;19.566;2023-12-22T02:24:18;5;;;2;;
84270;SDS011;74614;50.032;19.566;2023-12-22T02:26:22;5;;;2;;
84270;SDS011;74614;50.032;19.566;2023-12-22T02:29:21;5;;;1;;
84270;SDS011;74614;50.032;19.566;2023-12-22T02:31:22;5;;;3;;
84270;SDS011;74614;50.032;19.566;2023-12-22T02:33:25;4;;;2;;
84270;SDS011;74614;50.032;19.566;2023-12-22T02:35:21;4;;;2;;
84270;SDS011;74614;50.032;19.566;2023-12-22T02:37:28;5;;;3;;
84270;SDS011;74614;50.032;19.566;2023-12-22T02:39:21;5;;;2;;
84270;SDS011;74614;50.032;19.566;2023-12-22T02:41:22;4;;;3;;
84270;SDS011;74614;50.032;19.566;2023-12-22T02:43:24;5;;;2;;
84270;SDS011;74614;50.032;19.566;2023-12-22T02:45:23;5;;;3;;
84270;SDS011;74614;50.032;19.566;2023-12-22T02:47:22;4;;;2;;
84270;SDS011;74614;50.032;19.566;2023-12-22T02:49:27;6;;;2;;
84270;SDS011;74614;50.032;19.566;2023-12-22T02:51:26;5;;;3;;
84270;SDS011;74614;50.032;19.566;2023-12-22T02:53:21;6;;;3;;
84270;SDS011;74614;50.032;19.566;2023-12-22T02:55:21;5;;;3;;
84270;SDS011;74614;50.032;19.566;2023-12-22T02:57:24;5;;;2;;
84270;SDS011;74614;50.032;19.566;2023-12-22T02:59:20;5;;;2;;
84270;SDS011;74614;50.032;19.566;2023-12-22T03:01:29;5;;;2;;
84270;SDS011;74614;50.032;19.566;2023-12-22T03:03:23;5;;;3;;
84270;SDS011;74614;50.032;19.566;2023-12-22T03:05:21;8;;;3;;
84270;SDS011;74614;50.032;19.566;2023-12-22T03:07:21;5;;;2;;
84270;SDS011;74614;50.032;19.566;2023-12-22T03:09:23;4;;;2;;
84270;SDS011;74614;50.032;19.566;2023-12-22T03:11:20;5;;;3;;
84270;SDS011;74614;50.032;19.566;2023-12-22T03:13:23;5;;;2;;
84270;SDS011;74614;50.032;19.566;2023-12-22T03:15:20;4;;;3;;
84270;SDS011;74614;50.032;19.566;2023-12-22T03:17:21;3;;;2;;
84270;SDS011;74614;50.032;19.566;2023-12-22T03:19:25;4;;;2;;
84270;SDS011;74614;50.032;19.566;2023-12-22T03:21:23;4;;;2;;
84270;SDS011;74614;50.032;19.566;2023-12-22T03:23:23;3;;;1;;
84270;SDS011;74614;50.032;19.566;2023-12-22T03:25:21;5;;;2;;
84270;SDS011;74614;50.032;19.566;2023-12-22T03:27:22;3;;;2;;
84270;SDS011;74614;50.032;19.566;2023-12-22T03:29:22;3;;;2;;
84270;SDS011;74614;50.032;19.566;2023-12-22T03:31:20;3;;;2;;
84270;SDS011;74614;50.032;19.566;2023-12-22T03:33:23;4;;;2;;
84270;SDS011;74614;50.032;19.566;2023-12-22T03:35:21;5;;;2;;
84270;SDS011;74614;50.032;19.566;2023-12-22T03:37:23;3;;;2;;
84270;SDS011;74614;50.032;19.566;2023-12-22T03:39:23;5;;;2;;
84270;SDS011;74614;50.032;19.566;2023-12-22T03:41:22;4;;;2;;
84270;SDS011;74614;50.032;19.566;2023-12-22T03:43:21;4;;;2;;
84270;SDS011;74614;50.032;19.566;2023-12-22T03:45:24;4;;;3;;
84270;SDS011;74614;50.032;19.566;2023-12-22T03:47:20;3;;;2;;
84270;SDS011;74614;50.032;19.566;2023-12-22T03:49:23;3;;;2;;
84270;SDS011;74614;50.032;19.566;2023-12-22T03:51:22;5;;;2;;
84270;SDS011;74614;50.032;19.566;2023-12-22T03:53:22;7;;;3;;
84270;SDS011;74614;50.032;19.566;2023-12-22T03:55:23;4;;;2;;
84270;SDS011;74614;50.032;19.566;2023-12-22T03:57:22;4;;;2;;
84270;SDS011;74614;50.032;19.566;2023-12-22T03:59:23;5;;;3;;
84270;SDS011;74614;50.032;19.566;2023-12-22T04:01:24;5;;;2;;
84270;SDS011;74614;50.032;19.566;2023-12-22T04:03:21;4;;;2;;
84270;SDS011;74614;50.032;19.566;2023-12-22T04:05:23;5;;;2;;
84270;SDS011;74614;50.032;19.566;2023-12-22T04:07:22;5;;;2;;
84270;SDS011;74614;50.032;19.566;2023-12-22T04:09:33;6;;;2;;
84270;SDS011;74614;50.032;19.566;2023-12-22T04:12:19;4;;;2;;
84270;SDS011;74614;50.032;19.566;2023-12-22T04:14:19;6;;;2;;
84270;SDS011;74614;50.032;19.566;2023-12-22T04:16:19;4;;;2;;
84270;SDS011;74614;50.032;19.566;2023-12-22T04:18:19;6;;;2;;
84270;SDS011;74614;50.032;19.566;2023-12-22T04:20:19;4;;;2;;
84270;SDS011;74614;50.032;19.566;2023-12-22T04:22:18;4;;;2;;
84270;SDS011;74614;50.032;19.566;2023-12-22T04:24:19;5;;;2;;
84270;SDS011;74614;50.032;19.566;2023-12-22T04:26:19;5;;;2;;
84270;SDS011;74614;50.032;19.566;2023-12-22T04:28:18;5;;;2;;
84270;SDS011;74614;50.032;19.566;2023-12-22T04:30:18;6;;;2;;
84270;SDS011;74614;50.032;19.566;2023-12-22T04:32:19;5;;;2;;
84270;SDS011;74614;50.032;19.566;2023-12-22T04:34:19;5;;;2;;
84270;SDS011;74614;50.032;19.566;2023-12-22T04:36:20;6;;;2;;
84270;SDS011;74614;50.032;19.566;2023-12-22T04:38:20;6;;;2;;
84270;SDS011;74614;50.032;19.566;2023-12-22T04:40:23;5;;;2;;
84270;SDS011;74614;50.032;19.566;2023-12-22T04:42:18;5;;;2;;
84270;SDS011;74614;50.032;19.566;2023-12-22T04:44:22;5;;;3;;
84270;SDS011;74614;50.032;19.566;2023-12-22T04:46:19;5;;;2;;
84270;SDS011;74614;50.032;19.566;2023-12-22T04:48:22;6;;;2;;
84270;SDS011;74614;50.032;19.566;2023-12-22T04:50:21;5;;;1;;
84270;SDS011;74614;50.032;19.566;2023-12-22T04:52:28;7;;;3;;
84270;SDS011;74614;50.032;19.566;2023-12-22T04:54:22;5;;;2;;
84270;SDS011;74614;50.032;19.566;2023-12-22T04:56:23;6;;;2;;
84270;SDS011;74614;50.032;19.566;2023-12-22T04:58:24;5;;;2;;
84270;SDS011;74614;50.032;19.566;2023-12-22T05:00:23;7;;;2;;
84270;SDS011;74614;50.032;19.566;2023-12-22T05:02:22;5;;;3;;
84270;SDS011;74614;50.032;19.566;2023-12-22T05:04:21;5;;;2;;
84270;SDS011;74614;50.032;19.566;2023-12-22T05:06:21;5;;;2;;
84270;SDS011;74614;50.032;19.566;2023-12-22T05:08:21;7;;;3;;
84270;SDS011;74614;50.032;19.566;2023-12-22T05:10:27;5;;;2;;
84270;SDS011;74614;50.032;19.566;2023-12-22T05:12:22;6;;;2;;
84270;SDS011;74614;50.032;19.566;2023-12-22T05:14:21;7;;;2;;
84270;SDS011;74614;50.032;19.566;2023-12-22T05:16:22;5;;;3;;
84270;SDS011;74614;50.032;19.566;2023-12-22T05:18:21;6;;;2;;
84270;SDS011;74614;50.032;19.566;2023-12-22T05:20:21;6;;;2;;
84270;SDS011;74614;50.032;19.566;2023-12-22T05:22:21;6;;;3;;
84270;SDS011;74614;50.032;19.566;2023-12-22T05:24:21;5;;;3;;
84270;SDS011;74614;50.032;19.566;2023-12-22T05:26:23;5;;;3;;
84270;SDS011;74614;50.032;19.566;2023-12-22T05:28:21;7;;;2;;
84270;SDS011;74614;50.032;19.566;2023-12-22T05:30:20;6;;;3;;
84270;SDS011;74614;50.032;19.566;2023-12-22T05:32:21;4;;;2;;
84270;SDS011;74614;50.032;19.566;2023-12-22T05:34:23;3;;;2;;
84270;SDS011;74614;50.032;19.566;2023-12-22T05:36:22;4;;;2;;
84270;SDS011;74614;50.032;19.566;2023-12-22T05:38:24;6;;;3;;
84270;SDS011;74614;50.032;19.566;2023-12-22T05:40:21;5;;;2;;
84270;SDS011;74614;50.032;19.566;2023-12-22T05:42:23;6;;;4;;
84270;SDS011;74614;50.032;19.566;2023-12-22T05:44:23;6;;;3;;
84270;SDS011;74614;50.032;19.566;2023-12-22T05:46:23;4;;;3;;
84270;SDS011;74614;50.032;19.566;2023-12-22T05:48:23;6;;;3;;
84270;SDS011;74614;50.032;19.566;2023-12-22T05:50:22;6;;;3;;
84270;SDS011;74614;50.032;19.566;2023-12-22T05:52:20;6;;;3;;
84270;SDS011;74614;50.032;19.566;2023-12-22T05:54:23;4;;;2;;
84270;SDS011;74614;50.032;19.566;2023-12-22T05:56:21;3;;;2;;
84270;SDS011;74614;50.032;19.566;2023-12-22T05:59:21;3;;;2;;
84270;SDS011;74614;50.032;19.566;2023-12-22T06:01:20;2;;;1;;
84270;SDS011;74614;50.032;19.566;2023-12-22T06:03:32;2;;;1;;
84270;SDS011;74614;50.032;19.566;2023-12-22T06:05:21;2;;;2;;
84270;SDS011;74614;50.032;19.566;2023-12-22T06:07:23;3;;;2;;
84270;SDS011;74614;50.032;19.566;2023-12-22T06:09:25;3;;;1;;
84270;SDS011;74614;50.032;19.566;2023-12-22T06:11:22;5;;;2;;
84270;SDS011;74614;50.032;19.566;2023-12-22T06:13:25;4;;;2;;
84270;SDS011;74614;50.032;19.566;2023-12-22T06:15:21;2;;;1;;
84270;SDS011;74614;50.032;19.566;2023-12-22T06:17:22;3;;;2;;
84270;SDS011;74614;50.032;19.566;2023-12-22T06:19:25;3;;;2;;
84270;SDS011;74614;50.032;19.566;2023-12-22T06:21:21;3;;;2;;
84270;SDS011;74614;50.032;19.566;2023-12-22T06:23:24;4;;;2;;
84270;SDS011;74614;50.032;19.566;2023-12-22T06:25:22;3;;;2;;
84270;SDS011;74614;50.032;19.566;2023-12-22T06:27:23;7;;;2;;
84270;SDS011;74614;50.032;19.566;2023-12-22T06:29:20;4;;;2;;
84270;SDS011;74614;50.032;19.566;2023-12-22T06:31:26;4;;;2;;
84270;SDS011;74614;50.032;19.566;2023-12-22T06:33:23;4;;;3;;
84270;SDS011;74614;50.032;19.566;2023-12-22T06:35:28;5;;;3;;
84270;SDS011;74614;50.032;19.566;2023-12-22T06:37:45;5;;;3;;
84270;SDS011;74614;50.032;19.566;2023-12-22T06:40:21;5;;;3;;
84270;SDS011;74614;50.032;19.566;2023-12-22T06:42:23;7;;;3;;
84270;SDS011;74614;50.032;19.566;2023-12-22T06:44:20;6;;;3;;
84270;SDS011;74614;50.032;19.566;2023-12-22T06:46:21;7;;;3;;
84270;SDS011;74614;50.032;19.566;2023-12-22T06:48:30;7;;;3;;
84270;SDS011;74614;50.032;19.566;2023-12-22T06:50:27;4;;;2;;
84270;SDS011;74614;50.032;19.566;2023-12-22T06:52:23;6;;;3;;
84270;SDS011;74614;50.032;19.566;2023-12-22T06:54:21;4;;;2;;
84270;SDS011;74614;50.032;19.566;2023-12-22T06:56:23;7;;;3;;
84270;SDS011;74614;50.032;19.566;2023-12-22T06:58:23;6;;;2;;
84270;SDS011;74614;50.032;19.566;2023-12-22T07:00:22;6;;;2;;
84270;SDS011;74614;50.032;19.566;2023-12-22T07:02:20;6;;;2;;
84270;SDS011;74614;50.032;19.566;2023-12-22T07:05:01;6;;;2;;
84270;SDS011;74614;50.032;19.566;2023-12-22T07:05:32;6;;;2;;
84270;SDS011;74614;50.032;19.566;2023-12-22T07:07:23;6;;;2;;
84270;SDS011;74614;50.032;19.566;2023-12-22T07:09:30;6;;;2;;
84270;SDS011;74614;50.032;19.566;2023-12-22T07:11:23;6;;;2;;
84270;SDS011;74614;50.032;19.566;2023-12-22T07:13:19;6;;;2;;
84270;SDS011;74614;50.032;19.566;2023-12-22T07:15:21;6;;;2;;
84270;SDS011;74614;50.032;19.566;2023-12-22T07:17:21;6;;;2;;
84270;SDS011;74614;50.032;19.566;2023-12-22T07:19:21;6;;;2;;
84270;SDS011;74614;50.032;19.566;2023-12-22T07:21:19;6;;;2;;
84270;SDS011;74614;50.032;19.566;2023-12-22T07:23:21;6;;;2;;
84270;SDS011;74614;50.032;19.566;2023-12-22T07:25:20;6;;;2;;
84270;SDS011;74614;50.032;19.566;2023-12-22T07:27:20;6;;;2;;
84270;SDS011;74614;50.032;19.566;2023-12-22T07:29:20;6;;;2;;
84270;SDS011;74614;50.032;19.566;2023-12-22T07:31:22;6;;;2;;
84270;SDS011;74614;50.032;19.566;2023-12-22T07:33:19;6;;;2;;
84270;SDS011;74614;50.032;19.566;2023-12-22T07:35:23;6;;;2;;
84270;SDS011;74614;50.032;19.566;2023-12-22T07:37:19;6;;;2;;
84270;SDS011;74614;50.032;19.566;2023-12-22T07:39:20;6;;;2;;
84270;SDS011;74614;50.032;19.566;2023-12-22T07:41:23;8;;;4;;
84270;SDS011;74614;50.032;19.566;2023-12-22T07:43:21;9;;;4;;
84270;SDS011;74614;50.032;19.566;2023-12-22T07:45:19;7;;;4;;
84270;SDS011;74614;50.032;19.566;2023-12-22T07:47:20;8;;;4;;
84270;SDS011;74614;50.032;19.566;2023-12-22T07:49:19;10;;;4;;
84270;SDS011;74614;50.032;19.566;2023-12-22T07:51:21;8;;;4;;
84270;SDS011;74614;50.032;19.566;2023-12-22T07:53:19;10;;;6;;
84270;SDS011;74614;50.032;19.566;2023-12-22T07:55:20;15;;;8;;
84270;SDS011;74614;50.032;19.566;2023-12-22T07:57:23;16;;;9;;
84270;SDS011;74614;50.032;19.566;2023-12-22T07:59:21;16;;;10;;
84270;SDS011;74614;50.032;19.566;2023-12-22T08:01:22;15;;;9;;
84270;SDS011;74614;50.032;19.566;2023-12-22T08:03:24;15;;;9;;
84270;SDS011;74614;50.032;19.566;2023-12-22T08:05:19;15;;;9;;
84270;SDS011;74614;50.032;19.566;2023-12-22T08:07:21;15;;;9;;
84270;SDS011;74614;50.032;19.566;2023-12-22T08:09:19;15;;;9;;
84270;SDS011;74614;50.032;19.566;2023-12-22T08:11:20;15;;;9;;
84270;SDS011;74614;50.032;19.566;2023-12-22T08:13:20;15;;;9;;
84270;SDS011;74614;50.032;19.566;2023-12-22T08:15:20;15;;;9;;
84270;SDS011;74614;50.032;19.566;2023-12-22T08:17:22;15;;;9;;
84270;SDS011;74614;50.032;19.566;2023-12-22T08:19:21;15;;;9;;
84270;SDS011;74614;50.032;19.566;2023-12-22T08:21:18;15;;;9;;
84270;SDS011;74614;50.032;19.566;2023-12-22T08:23:45;15;;;9;;
84270;SDS011;74614;50.032;19.566;2023-12-22T08:26:25;7;;;3;;
84270;SDS011;74614;50.032;19.566;2023-12-22T08:28:22;6;;;3;;
84270;SDS011;74614;50.032;19.566;2023-12-22T08:30:22;6;;;4;;
84270;SDS011;74614;50.032;19.566;2023-12-22T08:32:23;6;;;3;;
84270;SDS011;74614;50.032;19.566;2023-12-22T08:34:20;6;;;2;;
84270;SDS011;74614;50.032;19.566;2023-12-22T08:36:21;6;;;4;;
84270;SDS011;74614;50.032;19.566;2023-12-22T08:38:23;7;;;4;;
84270;SDS011;74614;50.032;19.566;2023-12-22T08:40:28;6;;;3;;
84270;SDS011;74614;50.032;19.566;2023-12-22T08:42:21;7;;;4;;
84270;SDS011;74614;50.032;19.566;2023-12-22T08:44:21;6;;;2;;
84270;SDS011;74614;50.032;19.566;2023-12-22T08:46:27;6;;;3;;
84270;SDS011;74614;50.032;19.566;2023-12-22T08:48:22;5;;;3;;
84270;SDS011;74614;50.032;19.566;2023-12-22T08:50:21;7;;;3;;
84270;SDS011;74614;50.032;19.566;2023-12-22T08:52:24;7;;;3;;
84270;SDS011;74614;50.032;19.566;2023-12-22T08:54:22;6;;;3;;
84270;SDS011;74614;50.032;19.566;2023-12-22T08:56:23;7;;;4;;
84270;SDS011;74614;50.032;19.566;2023-12-22T08:58:22;7;;;3;;
84270;SDS011;74614;50.032;19.566;2023-12-22T09:00:22;22;;;13;;
84270;SDS011;74614;50.032;19.566;2023-12-22T09:02:23;22;;;11;;
84270;SDS011;74614;50.032;19.566;2023-12-22T09:04:24;26;;;12;;
84270;SDS011;74614;50.032;19.566;2023-12-22T09:06:23;13;;;7;;
84270;SDS011;74614;50.032;19.566;2023-12-22T09:08:21;7;;;5;;
84270;SDS011;74614;50.032;19.566;2023-12-22T09:10:26;15;;;8;;
84270;SDS011;74614;50.032;19.566;2023-12-22T09:12:21;8;;;4;;
84270;SDS011;74614;50.032;19.566;2023-12-22T09:14:22;7;;;4;;
84270;SDS011;74614;50.032;19.566;2023-12-22T09:16:23;6;;;3;;
84270;SDS011;74614;50.032;19.566;2023-12-22T09:18:26;5;;;3;;
84270;SDS011;74614;50.032;19.566;2023-12-22T09:20:21;6;;;3;;
84270;SDS011;74614;50.032;19.566;2023-12-22T09:22:24;5;;;3;;
84270;SDS011;74614;50.032;19.566;2023-12-22T09:24:23;5;;;3;;
84270;SDS011;74614;50.032;19.566;2023-12-22T09:26:24;6;;;3;;
84270;SDS011;74614;50.032;19.566;2023-12-22T09:28:29;5;;;3;;
84270;SDS011;74614;50.032;19.566;2023-12-22T09:30:24;6;;;3;;
84270;SDS011;74614;50.032;19.566;2023-12-22T09:32:22;5;;;3;;
84270;SDS011;74614;50.032;19.566;2023-12-22T09:34:25;6;;;3;;
84270;SDS011;74614;50.032;19.566;2023-12-22T09:36:23;7;;;4;;
84270;SDS011;74614;50.032;19.566;2023-12-22T09:38:25;6;;;4;;
84270;SDS011;74614;50.032;19.566;2023-12-22T09:40:23;6;;;4;;
84270;SDS011;74614;50.032;19.566;2023-12-22T09:42:21;5;;;3;;
84270;SDS011;74614;50.032;19.566;2023-12-22T09:44:21;7;;;4;;
84270;SDS011;74614;50.032;19.566;2023-12-22T09:46:20;6;;;4;;
84270;SDS011;74614;50.032;19.566;2023-12-22T09:48:29;6;;;3;;
84270;SDS011;74614;50.032;19.566;2023-12-22T09:50:21;5;;;3;;
84270;SDS011;74614;50.032;19.566;2023-12-22T09:52:25;5;;;3;;
84270;SDS011;74614;50.032;19.566;2023-12-22T09:54:21;5;;;3;;
84270;SDS011;74614;50.032;19.566;2023-12-22T09:56:23;5;;;2;;
84270;SDS011;74614;50.032;19.566;2023-12-22T09:58:24;5;;;3;;
84270;SDS011;74614;50.032;19.566;2023-12-22T10:00:21;5;;;3;;
84270;SDS011;74614;50.032;19.566;2023-12-22T10:02:25;5;;;3;;
84270;SDS011;74614;50.032;19.566;2023-12-22T10:04:22;5;;;3;;
84270;SDS011;74614;50.032;19.566;2023-12-22T10:06:21;6;;;3;;
84270;SDS011;74614;50.032;19.566;2023-12-22T10:08:23;5;;;4;;
84270;SDS011;74614;50.032;19.566;2023-12-22T10:10:21;5;;;3;;
84270;SDS011;74614;50.032;19.566;2023-12-22T10:12:22;6;;;3;;
84270;SDS011;74614;50.032;19.566;2023-12-22T10:14:24;5;;;2;;
84270;SDS011;74614;50.032;19.566;2023-12-22T10:16:24;6;;;4;;
84270;SDS011;74614;50.032;19.566;2023-12-22T10:18:24;7;;;3;;
84270;SDS011;74614;50.032;19.566;2023-12-22T10:20:23;5;;;3;;
84270;SDS011;74614;50.032;19.566;2023-12-22T10:22:25;6;;;4;;
84270;SDS011;74614;50.032;19.566;2023-12-22T10:24:40;7;;;3;;
84270;SDS011;74614;50.032;19.566;2023-12-22T10:27:20;8;;;4;;
84270;SDS011;74614;50.032;19.566;2023-12-22T10:29:21;7;;;3;;
84270;SDS011;74614;50.032;19.566;2023-12-22T10:31:22;8;;;4;;
84270;SDS011;74614;50.032;19.566;2023-12-22T10:33:20;8;;;4;;
84270;SDS011;74614;50.032;19.566;2023-12-22T10:35:20;8;;;4;;
84270;SDS011;74614;50.032;19.566;2023-12-22T10:37:21;8;;;4;;
84270;SDS011;74614;50.032;19.566;2023-12-22T10:39:22;9;;;4;;
84270;SDS011;74614;50.032;19.566;2023-12-22T10:41:19;9;;;4;;
84270;SDS011;74614;50.032;19.566;2023-12-22T10:43:23;8;;;4;;
84270;SDS011;74614;50.032;19.566;2023-12-22T10:45:21;7;;;4;;
84270;SDS011;74614;50.032;19.566;2023-12-22T10:47:24;7;;;4;;
84270;SDS011;74614;50.032;19.566;2023-12-22T10:49:22;9;;;3;;
84270;SDS011;74614;50.032;19.566;2023-12-22T10:51:23;7;;;3;;
84270;SDS011;74614;50.032;19.566;2023-12-22T10:53:25;9;;;4;;
84270;SDS011;74614;50.032;19.566;2023-12-22T10:55:25;8;;;3;;
84270;SDS011;74614;50.032;19.566;2023-12-22T10:57:21;8;;;3;;
84270;SDS011;74614;50.032;19.566;2023-12-22T10:59:24;7;;;4;;
84270;SDS011;74614;50.032;19.566;2023-12-22T11:01:21;8;;;4;;
84270;SDS011;74614;50.032;19.566;2023-12-22T11:03:26;9;;;3;;
84270;SDS011;74614;50.032;19.566;2023-12-22T11:05:21;8;;;3;;
84270;SDS011;74614;50.032;19.566;2023-12-22T11:07:23;10;;;4;;
84270;SDS011;74614;50.032;19.566;2023-12-22T11:09:21;9;;;4;;
84270;SDS011;74614;50.032;19.566;2023-12-22T11:11:25;8;;;4;;
84270;SDS011;74614;50.032;19.566;2023-12-22T11:13:20;9;;;5;;
84270;SDS011;74614;50.032;19.566;2023-12-22T11:15:25;10;;;5;;
84270;SDS011;74614;50.032;19.566;2023-12-22T11:17:21;8;;;3;;
84270;SDS011;74614;50.032;19.566;2023-12-22T11:19:23;6;;;3;;
84270;SDS011;74614;50.032;19.566;2023-12-22T11:21:23;8;;;4;;
84270;SDS011;74614;50.032;19.566;2023-12-22T11:23:23;6;;;4;;
84270;SDS011;74614;50.032;19.566;2023-12-22T11:25:26;7;;;4;;
84270;SDS011;74614;50.032;19.566;2023-12-22T11:27:22;6;;;4;;
84270;SDS011;74614;50.032;19.566;2023-12-22T11:29:22;6;;;4;;
84270;SDS011;74614;50.032;19.566;2023-12-22T11:31:30;7;;;3;;
84270;SDS011;74614;50.032;19.566;2023-12-22T11:33:22;5;;;3;;
84270;SDS011;74614;50.032;19.566;2023-12-22T11:35:23;4;;;2;;
84270;SDS011;74614;50.032;19.566;2023-12-22T11:37:20;5;;;3;;
84270;SDS011;74614;50.032;19.566;2023-12-22T11:39:24;4;;;2;;
84270;SDS011;74614;50.032;19.566;2023-12-22T11:41:24;4;;;2;;
84270;SDS011;74614;50.032;19.566;2023-12-22T11:43:25;5;;;2;;
84270;SDS011;74614;50.032;19.566;2023-12-22T11:45:25;6;;;3;;
84270;SDS011;74614;50.032;19.566;2023-12-22T11:47:24;5;;;3;;
84270;SDS011;74614;50.032;19.566;2023-12-22T11:49:21;6;;;3;;
84270;SDS011;74614;50.032;19.566;2023-12-22T11:51:31;7;;;3;;
84270;SDS011;74614;50.032;19.566;2023-12-22T11:53:23;6;;;3;;
84270;SDS011;74614;50.032;19.566;2023-12-22T11:56:10;8;;;4;;
84270;SDS011;74614;50.032;19.566;2023-12-22T11:58:39;6;;;3;;
84270;SDS011;74614;50.032;19.566;2023-12-22T12:01:22;5;;;3;;
84270;SDS011;74614;50.032;19.566;2023-12-22T12:03:27;6;;;4;;
84270;SDS011;74614;50.032;19.566;2023-12-22T12:05:21;7;;;4;;
84270;SDS011;74614;50.032;19.566;2023-12-22T12:07:41;5;;;3;;
84270;SDS011;74614;50.032;19.566;2023-12-22T12:10:52;5;;;3;;
84270;SDS011;74614;50.032;19.566;2023-12-22T12:13:25;5;;;3;;
84270;SDS011;74614;50.032;19.566;2023-12-22T12:15:25;8;;;4;;
84270;SDS011;74614;50.032;19.566;2023-12-22T12:17:23;7;;;3;;
84270;SDS011;74614;50.032;19.566;2023-12-22T12:19:27;7;;;3;;
84270;SDS011;74614;50.032;19.566;2023-12-22T12:21:21;6;;;4;;
84270;SDS011;74614;50.032;19.566;2023-12-22T12:23:26;5;;;3;;
84270;SDS011;74614;50.032;19.566;2023-12-22T12:25:28;5;;;3;;
84270;SDS011;74614;50.032;19.566;2023-12-22T12:27:23;6;;;4;;
84270;SDS011;74614;50.032;19.566;2023-12-22T12:29:21;6;;;3;;
84270;SDS011;74614;50.032;19.566;2023-12-22T12:31:22;7;;;4;;
84270;SDS011;74614;50.032;19.566;2023-12-22T12:33:22;8;;;4;;
84270;SDS011;74614;50.032;19.566;2023-12-22T12:35:26;8;;;5;;
84270;SDS011;74614;50.032;19.566;2023-12-22T12:37:22;10;;;6;;
84270;SDS011;74614;50.032;19.566;2023-12-22T12:39:31;9;;;5;;
84270;SDS011;74614;50.032;19.566;2023-12-22T12:41:29;11;;;5;;
84270;SDS011;74614;50.032;19.566;2023-12-22T12:43:23;6;;;4;;
84270;SDS011;74614;50.032;19.566;2023-12-22T12:45:23;7;;;3;;
84270;SDS011;74614;50.032;19.566;2023-12-22T12:47:27;8;;;4;;
84270;SDS011;74614;50.032;19.566;2023-12-22T12:49:29;8;;;4;;
84270;SDS011;74614;50.032;19.566;2023-12-22T12:51:23;8;;;4;;
84270;SDS011;74614;50.032;19.566;2023-12-22T12:53:22;8;;;5;;
84270;SDS011;74614;50.032;19.566;2023-12-22T12:55:24;5;;;3;;
84270;SDS011;74614;50.032;19.566;2023-12-22T12:57:23;7;;;4;;
84270;SDS011;74614;50.032;19.566;2023-12-22T12:59:24;7;;;3;;
84270;SDS011;74614;50.032;19.566;2023-12-22T13:01:23;7;;;3;;
84270;SDS011;74614;50.032;19.566;2023-12-22T13:03:25;7;;;4;;
84270;SDS011;74614;50.032;19.566;2023-12-22T13:05:25;8;;;4;;
84270;SDS011;74614;50.032;19.566;2023-12-22T13:07:24;5;;;3;;
84270;SDS011;74614;50.032;19.566;2023-12-22T13:09:31;5;;;3;;
84270;SDS011;74614;50.032;19.566;2023-12-22T13:11:25;7;;;4;;
84270;SDS011;74614;50.032;19.566;2023-12-22T13:13:21;7;;;4;;